createdAt,value
2023-02-09T00:00:38.042Z,103211.59
2023-02-09T00:07:39.658Z,103197.63
2023-02-09T00:14:41.198Z,103196.75
2023-02-09T00:21:42.849Z,103196.72
2023-02-09T00:28:44.395Z,103179.56
2023-02-09T00:35:46.927Z,103180.94
2023-02-09T00:42:49.433Z,103167.53
2023-02-09T00:49:52.095Z,103165.59
2023-02-09T00:56:54.034Z,103162.84
2023-02-09T01:03:56.019Z,103153.81
2023-02-09T01:10:57.557Z,103152.16
2023-02-09T01:17:59.270Z,103145.75
2023-02-09T01:25:00.852Z,103142.88
2023-02-09T01:32:02.568Z,103144.56
2023-02-09T01:39:04.365Z,103121.63
2023-02-09T01:46:05.928Z,103112.69
2023-02-09T01:53:08.342Z,103111.94
2023-02-09T02:00:12.415Z,103099.06
2023-02-09T02:07:21.684Z,103079.56
2023-02-09T02:14:36.979Z,103065.75
2023-02-09T02:22:19.301Z,103054.38
2023-02-09T02:29:24.143Z,103064.00
2023-02-09T02:36:30.373Z,103045.81
2023-02-09T02:43:49.444Z,103042.19
2023-02-09T02:50:54.829Z,103035.91
2023-02-09T02:57:57.380Z,103020.78
2023-02-09T03:04:59.068Z,103022.63
2023-02-09T03:12:05.877Z,103016.56
2023-02-09T03:19:23.193Z,103017.66
2023-02-09T03:26:40.131Z,103017.72
2023-02-09T03:33:41.702Z,103009.53
2023-02-09T03:40:43.584Z,102988.38
2023-02-09T03:47:45.339Z,102989.41
2023-02-09T03:54:47.770Z,102997.13
2023-02-09T04:01:49.333Z,102972.06
2023-02-09T04:08:50.884Z,102987.34
2023-02-09T04:15:52.491Z,102983.22
2023-02-09T04:22:54.049Z,102973.00
2023-02-09T04:29:55.648Z,102972.28
2023-02-09T04:36:57.195Z,102964.09
2023-02-09T04:43:58.760Z,102977.63
2023-02-09T04:51:00.320Z,102959.69
2023-02-09T04:58:20.389Z,102959.88
2023-02-09T05:05:21.934Z,102954.31
2023-02-09T05:12:23.444Z,102948.09
2023-02-09T05:19:24.996Z,102964.19
2023-02-09T05:26:26.580Z,102949.69
2023-02-09T05:33:28.190Z,102946.94
2023-02-09T05:40:29.748Z,102933.91
2023-02-09T05:47:31.326Z,102944.97
2023-02-09T05:54:32.918Z,102932.75
2023-02-09T06:01:34.741Z,102941.56
2023-02-09T06:08:36.307Z,102955.03
2023-02-09T06:15:37.932Z,102949.00
2023-02-09T06:22:39.481Z,102943.31
2023-02-09T06:29:41.031Z,102951.69
2023-02-09T06:36:42.548Z,102955.00
2023-02-09T06:43:44.129Z,102948.31
2023-02-09T06:50:45.988Z,102944.81
2023-02-09T06:57:47.977Z,102956.78
2023-02-09T07:04:49.502Z,102954.88
2023-02-09T07:11:51.108Z,102963.84
2023-02-09T07:18:52.654Z,102958.19
2023-02-09T07:25:54.195Z,102949.84
2023-02-09T07:32:55.743Z,102946.81
2023-02-09T07:39:57.256Z,102946.63
2023-02-09T07:46:58.778Z,102952.06
2023-02-09T07:54:00.374Z,102938.69
2023-02-09T08:01:05.893Z,102955.22
2023-02-09T08:08:07.460Z,102936.22
2023-02-09T08:15:09.167Z,102930.97
2023-02-09T08:22:10.687Z,102935.97
2023-02-09T08:29:12.237Z,102928.25
2023-02-09T08:36:13.924Z,102912.38
2023-02-09T08:43:15.431Z,102918.25
2023-02-09T08:50:17.052Z,102905.97
2023-02-09T08:57:18.622Z,102903.88
2023-02-09T09:04:23.772Z,102906.00
2023-02-09T09:11:25.443Z,102911.22
2023-02-09T09:18:27.044Z,102903.44
2023-02-09T09:25:28.784Z,102881.72
2023-02-09T09:32:30.473Z,102886.31
2023-02-09T09:39:32.182Z,102879.31
2023-02-09T09:46:36.821Z,102869.50
2023-02-09T09:53:38.662Z,102864.16
2023-02-09T10:00:40.781Z,102851.63
2023-02-09T10:07:43.374Z,102838.31
2023-02-09T10:14:45.029Z,102850.75
2023-02-09T10:21:46.632Z,102843.56
2023-02-09T10:28:53.149Z,102823.22
2023-02-09T10:35:56.870Z,102824.97
2023-02-09T10:43:02.660Z,102824.16
2023-02-09T10:50:19.583Z,102799.28
2023-02-09T10:57:21.030Z,102773.44
2023-02-09T11:04:24.627Z,102751.19
2023-02-09T11:11:34.130Z,102725.41
2023-02-09T11:18:35.679Z,102727.16
2023-02-09T11:26:00.607Z,102703.16
2023-02-09T11:33:20.745Z,102718.22
2023-02-09T11:40:45.054Z,102723.56
2023-02-09T11:48:09.323Z,102726.25
2023-02-09T11:55:29.343Z,102723.50
2023-02-09T12:02:53.455Z,102712.81
2023-02-09T12:10:19.417Z,102708.47
2023-02-09T12:17:39.290Z,102710.13
2023-02-09T12:24:40.834Z,102696.78
2023-02-09T12:32:04.072Z,102694.09
2023-02-09T12:39:23.768Z,102688.53
2023-02-09T12:46:28.394Z,102672.69
2023-02-09T12:53:32.346Z,102674.50
2023-02-09T13:00:34.031Z,102671.75
2023-02-09T13:07:41.295Z,102690.50
2023-02-09T13:14:43.395Z,102684.09
2023-02-09T13:22:30.023Z,102698.19
2023-02-09T13:29:32.017Z,102701.66
2023-02-09T13:36:41.821Z,102715.28
2023-02-09T13:43:44.302Z,102711.59
2023-02-09T13:50:48.913Z,102708.06
2023-02-09T13:57:57.952Z,102681.34
2023-02-09T14:04:59.537Z,102672.41
2023-02-09T14:12:03.472Z,102644.13
2023-02-09T14:19:26.232Z,102665.44
2023-02-09T14:27:03.710Z,102661.72
2023-02-09T14:34:05.230Z,102647.59
2023-02-09T14:41:24.786Z,102679.66
2023-02-09T14:48:29.817Z,102674.31
2023-02-09T14:55:32.061Z,102687.72
2023-02-09T15:02:33.715Z,102677.09
2023-02-09T15:09:36.465Z,102670.06
2023-02-09T15:16:38.032Z,102664.78
2023-02-09T15:23:39.547Z,102640.66
2023-02-09T15:30:41.257Z,102641.72
2023-02-09T15:37:43.115Z,102629.22
2023-02-09T15:45:03.311Z,102654.19
2023-02-09T15:52:04.959Z,102662.25
2023-02-09T15:59:06.561Z,102643.53
2023-02-09T16:06:24.610Z,102624.03
2023-02-09T16:13:26.710Z,102648.06
2023-02-09T16:20:28.259Z,102616.06
2023-02-09T16:27:29.842Z,102611.63
2023-02-09T16:34:31.367Z,102626.75
2023-02-09T16:42:02.059Z,102647.19
2023-02-09T16:49:04.012Z,102634.75
2023-02-09T16:56:09.967Z,102638.31
2023-02-09T17:03:15.350Z,102654.31
2023-02-09T17:10:17.459Z,102670.28
2023-02-09T17:17:20.069Z,102663.22
2023-02-09T17:24:22.034Z,102675.63
2023-02-09T17:31:26.277Z,102669.44
2023-02-09T17:38:32.821Z,102662.31
2023-02-09T17:45:35.118Z,102660.56
2023-02-09T17:52:36.757Z,102670.31
2023-02-09T17:59:38.315Z,102673.00
2023-02-09T18:06:40.705Z,102672.06
2023-02-09T18:13:42.258Z,102673.88
2023-02-09T18:20:43.927Z,102688.09
2023-02-09T18:27:45.601Z,102684.53
2023-02-09T18:34:47.121Z,102671.22
2023-02-09T18:41:54.077Z,102682.75
2023-02-09T18:48:56.188Z,102669.44
2023-02-09T18:55:57.877Z,102669.44
2023-02-09T19:02:59.637Z,102662.31
2023-02-09T19:10:04.848Z,102661.38
2023-02-09T19:17:07.135Z,102668.53
2023-02-09T19:24:08.692Z,102671.19
2023-02-09T19:31:14.944Z,102663.19
2023-02-09T19:38:16.770Z,102667.66
2023-02-09T19:45:18.336Z,102686.28
2023-02-09T19:52:19.932Z,102661.44
2023-02-09T19:59:21.595Z,102654.28
2023-02-09T20:06:23.316Z,102653.41
2023-02-09T20:13:25.123Z,102656.94
2023-02-09T20:20:26.766Z,102668.47
2023-02-09T20:27:29.004Z,102673.81
2023-02-09T20:34:30.591Z,102660.50
2023-02-09T20:41:32.309Z,102666.63
2023-02-09T20:48:33.868Z,102663.06
2023-02-09T20:55:35.470Z,102677.25
2023-02-09T21:02:37.409Z,102679.03
2023-02-09T21:09:39.181Z,102677.28
2023-02-09T21:16:42.638Z,102677.31
2023-02-09T21:23:45.055Z,102685.25
2023-02-09T21:30:46.915Z,102692.38
2023-02-09T21:37:48.749Z,102697.59
2023-02-09T21:44:50.297Z,102689.66
2023-02-09T21:51:51.826Z,102679.94
2023-02-09T21:58:53.363Z,102686.97
2023-02-09T22:05:58.527Z,102684.28
2023-02-09T22:13:00.125Z,102690.59
2023-02-09T22:20:01.679Z,102692.38
2023-02-09T22:27:03.479Z,102699.53
2023-02-09T22:34:07.129Z,102704.88
2023-02-09T22:41:21.167Z,102708.47
2023-02-09T22:48:22.812Z,102707.59
2023-02-09T22:55:24.397Z,102718.25
2023-02-09T23:02:25.952Z,102717.38
2023-02-09T23:09:27.545Z,102711.13
2023-02-09T23:16:29.495Z,102713.81
2023-02-09T23:23:31.148Z,102713.81
2023-02-09T23:30:32.677Z,102709.38
2023-02-09T23:37:38.263Z,102708.53
2023-02-09T23:44:40.030Z,102706.75
2023-02-09T23:51:41.615Z,102707.63
2023-02-09T23:58:44.995Z,102712.97
